| time (UTC) | temp F | wind direction | speed MPH | gust MPH | rain 1hr in | rain 24hr in | rain mn in | humidity % | barometer mb |
| 20260506201514 | 67 | 122 | 1.0 | 2.0 | 0.00 | 0.07 | 0.07 | 84 | 1006.4 |
| 20260506201010 | 67 | 122 | 0.0 | 1.0 | 0.00 | 0.07 | 0.07 | 85 | 1006.2 |
| 20260506200506 | 67 | 99 | 0.0 | 0.0 | 0.00 | 0.07 | 0.07 | 85 | 1006.1 |
| 20260506200004 | 67 | 42 | 1.0 | 1.0 | 0.00 | 0.07 | 0.07 | 85 | 1006.5 |
| 20260506195501 | 67 | 101 | 0.0 | 0.0 | 0.00 | 0.07 | 0.07 | 84 | 1006.4 |
| 20260506194956 | 66 | 76 | 0.0 | 0.0 | 0.00 | 0.07 | 0.07 | 86 | 1006.4 |
| 20260506194454 | 66 | 123 | 1.0 | 1.0 | 0.00 | 0.07 | 0.07 | 86 | 1006.5 |
| 20260506193950 | 66 | 73 | 0.0 | 1.0 | 0.00 | 0.07 | 0.07 | 87 | 1006.5 |
| 20260506193448 | 65 | 60 | 2.0 | 3.0 | 0.00 | 0.07 | 0.07 | 87 | 1006.6 |
| 20260506192944 | 65 | 115 | 1.0 | 1.0 | 0.00 | 0.07 | 0.07 | 88 | 1006.8 |
| 20260506192442 | 65 | 102 | 0.0 | 1.0 | 0.00 | 0.07 | 0.07 | 88 | 1006.8 |
| 20260506191938 | 64 | 84 | 0.0 | 0.0 | 0.00 | 0.07 | 0.07 | 89 | 1006.6 |
| 20260506191435 | 64 | 88 | 1.0 | 1.0 | 0.00 | 0.07 | 0.07 | 90 | 1006.8 |
| 20260506190931 | 64 | 192 | 2.0 | 2.0 | 0.00 | 0.07 | 0.07 | 90 | 1007.0 |
| 20260506190428 | 63 | 104 | 1.0 | 2.0 | 0.00 | 0.07 | 0.07 | 90 | 1006.7 |
| 20260506185925 | 64 | 62 | 0.0 | 0.0 | 0.00 | 0.07 | 0.07 | 91 | 1006.9 |
| 20260506185422 | 63 | 25 | 1.0 | 1.0 | 0.00 | 0.07 | 0.07 | 91 | 1007.2 |
| 20260506184919 | 63 | 260 | 5.0 | 5.0 | 0.00 | 0.07 | 0.07 | 91 | 1007.0 |
| 20260506184416 | 63 | 89 | 1.0 | 1.0 | 0.00 | 0.07 | 0.07 | 91 | 1007.2 |
| 20260506183913 | 63 | 81 | 0.0 | 0.0 | 0.00 | 0.07 | 0.07 | 91 | 1007.2 |
| 20260506183408 | 63 | 39 | 0.0 | 1.0 | 0.00 | 0.07 | 0.07 | 91 | 1007.0 |
| 20260506182906 | 63 | 78 | 0.0 | 0.0 | 0.00 | 0.07 | 0.07 | 91 | 1007.2 |
| 20260506182403 | 63 | 97 | 1.0 | 1.0 | 0.00 | 0.07 | 0.07 | 92 | 1007.1 |
| 20260506181900 | 62 | 92 | 0.0 | 0.0 | 0.00 | 0.07 | 0.07 | 92 | 1007.3 |
| 20260506181358 | 62 | 82 | 0.0 | 0.0 | 0.00 | 0.07 | 0.07 | 93 | 1007.1 |
| 20260506180855 | 62 | 92 | 0.0 | 0.0 | 0.00 | 0.07 | 0.07 | 94 | 1007.3 |
| 20260506180351 | 62 | 143 | 1.0 | 2.0 | 0.00 | 0.07 | 0.07 | 94 | 1007.3 |
| 20260506175848 | 62 | 79 | 0.0 | 1.0 | 0.00 | 0.07 | 0.07 | 95 | 1007.3 |
| 20260506175344 | 62 | 67 | 0.0 | 0.0 | 0.00 | 0.07 | 0.07 | 95 | 1007.4 |
| 20260506174841 | 62 | 60 | 0.0 | 1.0 | 0.00 | 0.07 | 0.07 | 95 | 1007.3 |
| 20260506174339 | 62 | 261 | 0.0 | 1.0 | 0.00 | 0.07 | 0.07 | 95 | 1007.6 |
| 20260506173837 | 61 | 67 | 0.0 | 0.0 | 0.00 | 0.07 | 0.07 | 95 | 1007.5 |
| 20260506173333 | 61 | 89 | 2.0 | 2.0 | 0.00 | 0.07 | 0.07 | 95 | 1007.7 |
| 20260506172830 | 61 | 111 | 0.0 | 1.0 | 0.00 | 0.07 | 0.07 | 95 | 1007.5 |
| 20260506172327 | 61 | 86 | 2.0 | 5.0 | 0.00 | 0.07 | 0.07 | 95 | 1007.5 |
| 20260506171824 | 62 | 75 | 0.0 | 0.0 | 0.00 | 0.07 | 0.07 | 95 | 1007.7 |
| 20260506171321 | 61 | 85 | 0.0 | 1.0 | 0.00 | 0.07 | 0.07 | 95 | 1007.5 |
| 20260506170819 | 61 | 153 | 1.0 | 2.0 | 0.00 | 0.07 | 0.07 | 96 | 1007.4 |
| 20260506170315 | 61 | 77 | 0.0 | 0.0 | 0.00 | 0.07 | 0.07 | 96 | 1007.6 |
| 20260506165814 | 61 | 73 | 0.0 | 1.0 | 0.00 | 0.07 | 0.07 | 96 | 1007.6 |
| 20260506165311 | 61 | 62 | 1.0 | 1.0 | 0.00 | 0.07 | 0.07 | 96 | 1007.5 |
| 20260506164807 | 61 | 103 | 0.0 | 1.0 | 0.00 | 0.07 | 0.07 | 95 | 1007.5 |
| 20260506164304 | 61 | 77 | 2.0 | 2.0 | 0.00 | 0.07 | 0.07 | 96 | 1007.9 |
| 20260506163801 | 62 | 160 | 3.0 | 5.0 | 0.00 | 0.07 | 0.07 | 96 | 1007.7 |
| 20260506163256 | 62 | 83 | 0.0 | 1.0 | 0.00 | 0.07 | 0.07 | 96 | 1007.8 |
| 20260506162752 | 62 | 123 | 2.0 | 2.0 | 0.00 | 0.07 | 0.07 | 96 | 1008.1 |
| 20260506162250 | 62 | 123 | 0.0 | 1.0 | 0.00 | 0.07 | 0.07 | 96 | 1007.9 |
| 20260506161747 | 62 | 127 | 1.0 | 2.0 | 0.05 | 0.07 | 0.07 | 96 | 1007.8 |
| 20260506161244 | 62 | 168 | 2.0 | 2.0 | 0.05 | 0.07 | 0.07 | 96 | 1007.9 |
| 20260506160742 | 61 | 110 | 0.0 | 1.0 | 0.07 | 0.06 | 0.06 | 96 | 1007.9 |
| 20260506160238 | 61 | 74 | 0.0 | 0.0 | 0.07 | 0.06 | 0.06 | 96 | 1007.8 |
| 20260506155737 | 61 | 144 | 2.0 | 2.0 | 0.05 | 0.05 | 0.05 | 95 | 1008.3 |
| 20260506155233 | 61 | 148 | 0.0 | 1.0 | 0.05 | 0.05 | 0.05 | 94 | 1008.4 |
| 20260506153341 | 61 | 86 | 0.0 | 0.0 | 0.00 | 0.03 | 0.03 | 95 | 1009.0 |
| 20260506152837 | 61 | 93 | 2.0 | 2.0 | 0.00 | 0.03 | 0.03 | 95 | 1009.0 |
| 20260506152335 | 61 | 71 | 0.0 | 1.0 | 0.00 | 0.03 | 0.03 | 95 | 1009.0 |
| 20260506151833 | 61 | 88 | 0.0 | 0.0 | 0.05 | 0.03 | 0.03 | 94 | 1008.8 |
| 20260506151329 | 61 | 86 | 0.0 | 1.0 | 0.05 | 0.03 | 0.03 | 93 | 1008.9 |
| 20260506150827 | 61 | 73 | 0.0 | 0.0 | 0.05 | 0.03 | 0.03 | 92 | 1008.7 |
| 20260506150324 | 61 | 67 | 1.0 | 1.0 | 0.07 | 0.02 | 0.02 | 91 | 1008.6 |
| 20260506145820 | 61 | 2 | 3.0 | 5.0 | 0.07 | 0.02 | 0.02 | 91 | 1008.6 |
| 20260506145317 | 62 | 128 | 1.0 | 2.0 | 0.00 | 0.01 | 0.01 | 91 | 1008.9 |
| 20260506144815 | 62 | 106 | 1.0 | 1.0 | 0.07 | 0.01 | 0.01 | 90 | 1008.6 |
| 20260506144311 | 63 | 80 | 0.0 | 0.0 | 0.07 | 0.01 | 0.01 | 88 | 1008.5 |
| 20260506143809 | 63 | 101 | 0.0 | 1.0 | 0.00 | 0.00 | 0.00 | 86 | 1008.8 |
| 20260506143306 | 64 | 101 | 1.0 | 1.0 | 0.00 | 0.00 | 0.00 | 86 | 1008.9 |
| 20260506142804 | 64 | 70 | 0.0 | 1.0 | 0.00 | 0.00 | 0.00 | 85 | 1008.8 |
| 20260506142305 | 64 | 96 | 0.0 | 1.0 | 0.00 | 0.00 | 0.00 | 85 | 1008.6 |
| 20260506141800 | 64 | 84 | 0.0 | 0.0 | 0.00 | 0.00 | 0.00 | 84 | 1008.6 |
| 20260506141258 | 64 | 140 | 4.0 | 5.0 | 0.00 | 0.00 | 0.00 | 82 | 1008.8 |
| 20260506140755 | 65 | 83 | 0.0 | 1.0 | 0.00 | 0.00 | 0.00 | 80 | 1008.8 |
| 20260506140252 | 65 | 44 | 2.0 | 2.0 | 0.00 | 0.00 | 0.00 | 78 | 1008.6 |
| 20260506135749 | 66 | 135 | 2.0 | 3.0 | 0.00 | 0.00 | 0.00 | 76 | 1008.8 |
| 20260506135245 | 66 | 43 | 2.0 | 2.0 | 0.00 | 0.00 | 0.00 | 76 | 1008.8 |
| 20260506134742 | 66 | 74 | 0.0 | 0.0 | 0.00 | 0.00 | 0.00 | 75 | 1008.4 |
| 20260506134238 | 67 | 108 | 1.0 | 1.0 | 0.00 | 0.00 | 0.00 | 74 | 1008.6 |
| 20260506133736 | 67 | 82 | 0.0 | 1.0 | 0.00 | 0.00 | 0.00 | 76 | 1008.6 |
| 20260506133232 | 66 | 77 | 0.0 | 1.0 | 0.00 | 0.00 | 0.00 | 76 | 1008.4 |
| 20260506132729 | 66 | 124 | 1.0 | 3.0 | 0.00 | 0.00 | 0.00 | 75 | 1008.6 |
| 20260506132226 | 66 | 85 | 0.0 | 0.0 | 0.00 | 0.00 | 0.00 | 77 | 1008.5 |
| 20260506131724 | 66 | 59 | 2.0 | 3.0 | 0.00 | 0.00 | 0.00 | 76 | 1008.5 |
| 20260506131220 | 66 | 116 | 3.0 | 5.0 | 0.00 | 0.00 | 0.00 | 76 | 1008.5 |
| 20260506130717 | 66 | 29 | 1.0 | 2.0 | 0.00 | 0.00 | 0.00 | 76 | 1008.5 |
| 20260506130214 | 66 | 169 | 2.0 | 3.0 | 0.00 | 0.00 | 0.00 | 77 | 1008.6 |
| 20260506125712 | 66 | 112 | 1.0 | 1.0 | 0.00 | 0.00 | 0.00 | 76 | 1008.7 |
| 20260506125210 | 66 | 338 | 1.0 | 2.0 | 0.00 | 0.00 | 0.00 | 77 | 1008.4 |
| 20260506124708 | 66 | 158 | 2.0 | 2.0 | 0.00 | 0.00 | 0.00 | 76 | 1008.6 |
| 20260506124206 | 66 | 57 | 2.0 | 2.0 | 0.00 | 0.00 | 0.00 | 76 | 1008.9 |
| 20260506123702 | 66 | 114 | 3.0 | 7.0 | 0.00 | 0.00 | 0.00 | 76 | 1008.7 |
| 20260506123201 | 66 | 103 | 1.0 | 1.0 | 0.00 | 0.00 | 0.00 | 76 | 1008.9 |
| 20260506122658 | 66 | 124 | 1.0 | 1.0 | 0.00 | 0.00 | 0.00 | 76 | 1008.8 |
| 20260506122155 | 67 | 109 | 0.0 | 1.0 | 0.00 | 0.00 | 0.00 | 75 | 1008.6 |
| 20260506121653 | 67 | 72 | 0.0 | 0.0 | 0.00 | 0.00 | 0.00 | 76 | 1008.6 |
| 20260506121149 | 66 | 86 | 1.0 | 2.0 | 0.00 | 0.00 | 0.00 | 76 | 1008.5 |
| 20260506120647 | 66 | 125 | 3.0 | 3.0 | 0.00 | 0.00 | 0.00 | 76 | 1008.7 |
| 20260506120144 | 66 | 98 | 1.0 | 1.0 | 0.00 | 0.00 | 0.00 | 77 | 1008.6 |
| 20260506115642 | 66 | 140 | 2.0 | 2.0 | 0.00 | 0.00 | 0.00 | 76 | 1008.4 |
| 20260506115140 | 66 | 105 | 1.0 | 2.0 | 0.00 | 0.00 | 0.00 | 76 | 1008.6 |
| 20260506114637 | 66 | 99 | 1.0 | 2.0 | 0.00 | 0.00 | 0.00 | 76 | 1008.2 |
| 20260506114135 | 66 | 108 | 1.0 | 2.0 | 0.00 | 0.00 | 0.00 | 76 | 1008.2 |
| 20260506113634 | 66 | 101 | 1.0 | 1.0 | 0.00 | 0.00 | 0.00 | 77 | 1008.5 |
| 20260506113130 | 65 | 188 | 4.0 | 7.0 | 0.00 | 0.00 | 0.00 | 77 | 1008.4 |
| 20260506112626 | 65 | 108 | 1.0 | 2.0 | 0.00 | 0.00 | 0.00 | 78 | 1008.1 |
| 20260506112124 | 65 | 55 | 0.0 | 2.0 | 0.00 | 0.00 | 0.00 | 78 | 1008.3 |
| 20260506111622 | 65 | 77 | 0.0 | 0.0 | 0.00 | 0.00 | 0.00 | 78 | 1008.2 |
| 20260506111119 | 65 | 121 | 4.0 | 5.0 | 0.00 | 0.00 | 0.00 | 78 | 1008.3 |
| 20260506110616 | 65 | 77 | 0.0 | 1.0 | 0.00 | 0.00 | 0.00 | 78 | 1008.0 |
| 20260506110114 | 65 | 102 | 0.0 | 0.0 | 0.00 | 0.00 | 0.00 | 78 | 1008.0 |
| 20260506105610 | 65 | 119 | 1.0 | 1.0 | 0.00 | 0.00 | 0.00 | 78 | 1008.2 |
| 20260506105107 | 65 | 115 | 1.0 | 1.0 | 0.00 | 0.00 | 0.00 | 78 | 1008.4 |
| 20260506104605 | 65 | 105 | 1.0 | 1.0 | 0.00 | 0.00 | 0.00 | 78 | 1008.1 |
| 20260506104102 | 65 | 103 | 0.0 | 1.0 | 0.00 | 0.00 | 0.00 | 78 | 1008.3 |
| 20260506103600 | 64 | 123 | 1.0 | 2.0 | 0.00 | 0.00 | 0.00 | 79 | 1008.1 |
| 20260506103056 | 64 | 78 | 0.0 | 0.0 | 0.00 | 0.00 | 0.00 | 79 | 1008.1 |
| 20260506102555 | 65 | 125 | 1.0 | 2.0 | 0.00 | 0.00 | 0.00 | 78 | 1008.2 |
| 20260506102052 | 64 | 103 | 1.0 | 2.0 | 0.00 | 0.00 | 0.00 | 79 | 1008.2 |
| 20260506101548 | 64 | 143 | 0.0 | 1.0 | 0.00 | 0.00 | 0.00 | 79 | 1008.2 |
| 20260506101045 | 65 | 117 | 2.0 | 2.0 | 0.00 | 0.00 | 0.00 | 78 | 1008.1 |
| 20260506100544 | 65 | 103 | 0.0 | 1.0 | 0.00 | 0.00 | 0.00 | 78 | 1008.1 |
| 20260506100041 | 64 | 114 | 1.0 | 1.0 | 0.00 | 0.00 | 0.00 | 78 | 1008.1 |
| 20260506095540 | 65 | 88 | 1.0 | 1.0 | 0.00 | 0.00 | 0.00 | 78 | 1007.8 |
| 20260506095036 | 65 | 114 | 1.0 | 1.0 | 0.00 | 0.00 | 0.00 | 78 | 1008.0 |
| 20260506094534 | 64 | 101 | 1.0 | 1.0 | 0.00 | 0.00 | 0.00 | 78 | 1008.1 |
| 20260506094032 | 65 | 80 | 1.0 | 2.0 | 0.00 | 0.00 | 0.00 | 78 | 1008.4 |
| 20260506093530 | 65 | 121 | 1.0 | 1.0 | 0.00 | 0.00 | 0.00 | 77 | 1008.0 |
| 20260506093027 | 65 | 140 | 0.0 | 2.0 | 0.00 | 0.00 | 0.00 | 78 | 1008.1 |
| 20260506092525 | 65 | 115 | 1.0 | 2.0 | 0.00 | 0.00 | 0.00 | 77 | 1008.1 |
| 20260506092021 | 65 | 99 | 1.0 | 1.0 | 0.00 | 0.00 | 0.00 | 77 | 1008.3 |
| 20260506091520 | 65 | 143 | 1.0 | 2.0 | 0.00 | 0.00 | 0.00 | 77 | 1008.3 |
| 20260506091016 | 65 | 120 | 1.0 | 2.0 | 0.00 | 0.00 | 0.00 | 77 | 1008.2 |
| 20260506090514 | 66 | 92 | 0.0 | 0.0 | 0.00 | 0.00 | 0.00 | 76 | 1008.2 |
| 20260506090010 | 66 | 139 | 2.0 | 2.0 | 0.00 | 0.00 | 0.00 | 76 | 1008.2 |
| 20260506085507 | 66 | 77 | 0.0 | 0.0 | 0.00 | 0.00 | 0.00 | 76 | 1008.4 |
| 20260506085004 | 67 | 100 | 0.0 | 0.0 | 0.00 | 0.00 | 0.00 | 74 | 1008.3 |
| 20260506084501 | 67 | 86 | 0.0 | 0.0 | 0.00 | 0.00 | 0.00 | 74 | 1008.3 |
| 20260506083956 | 67 | 100 | 0.0 | 0.0 | 0.00 | 0.00 | 0.00 | 74 | 1008.5 |
| 20260506083454 | 67 | 109 | 1.0 | 1.0 | 0.00 | 0.00 | 0.00 | 74 | 1008.3 |
| 20260506082951 | 67 | 105 | 2.0 | 5.0 | 0.00 | 0.00 | 0.00 | 74 | 1008.0 |
| 20260506082448 | 67 | 200 | 3.0 | 5.0 | 0.00 | 0.00 | 0.00 | 75 | 1008.0 |
| 20260506081943 | 66 | 149 | 2.0 | 3.0 | 0.00 | 0.00 | 0.00 | 75 | 1008.3 |
| 20260506081442 | 66 | 110 | 1.0 | 1.0 | 0.00 | 0.00 | 0.00 | 76 | 1008.3 |
| 20260506080939 | 66 | 128 | 1.0 | 2.0 | 0.00 | 0.00 | 0.00 | 78 | 1008.3 |
| 20260506080436 | 65 | 73 | 0.0 | 0.0 | 0.00 | 0.00 | 0.00 | 78 | 1008.2 |
| 20260506073420 | 64 | 121 | 1.0 | 2.0 | 0.00 | 0.00 | 0.00 | 80 | 1008.5 |
| 20260506072917 | 64 | 84 | 0.0 | 0.0 | 0.00 | 0.00 | 0.00 | 79 | 1008.5 |
| 20260506072414 | 65 | 111 | 0.0 | 1.0 | 0.00 | 0.00 | 0.00 | 78 | 1008.5 |
| 20260506071912 | 65 | 108 | 0.0 | 1.0 | 0.00 | 0.00 | 0.00 | 78 | 1008.6 |
| 20260506071410 | 65 | 98 | 0.0 | 0.0 | 0.00 | 0.00 | 0.00 | 78 | 1008.7 |
| 20260506070906 | 65 | 84 | 0.0 | 0.0 | 0.00 | 0.00 | 0.00 | 78 | 1008.4 |
| 20260506070403 | 66 | 78 | 0.0 | 0.0 | 0.00 | 0.00 | 0.00 | 77 | 1008.6 |
| 20260506062341 | 66 | 106 | 0.0 | 0.0 | 0.00 | 0.00 | 0.00 | 75 | 1008.7 |
| 20260506061836 | 67 | 107 | 1.0 | 1.0 | 0.00 | 0.00 | 0.00 | 73 | 1009.0 |
| 20260506061333 | 66 | 127 | 1.0 | 2.0 | 0.00 | 0.00 | 0.00 | 74 | 1008.8 |
| 20260506060832 | 67 | 76 | 0.0 | 0.0 | 0.00 | 0.00 | 0.00 | 74 | 1008.8 |
| 20260506060329 | 67 | 145 | 1.0 | 2.0 | 0.00 | 0.00 | 0.00 | 73 | 1009.0 |
| 20260506051301 | 67 | 181 | 3.0 | 3.0 | 0.00 | 0.00 | 0.00 | 68 | 1009.1 |
| 20260506050759 | 67 | 93 | 0.0 | 0.0 | 0.00 | 0.00 | 0.00 | 68 | 1009.5 |
| 20260506050256 | 67 | 93 | 0.0 | 0.0 | 0.00 | 0.00 | 0.00 | 68 | 1009.4 |
| 20260506044747 | 66 | 96 | 0.0 | 0.0 | 0.00 | 0.00 | 0.00 | 69 | 1009.5 |
| 20260506044244 | 66 | 115 | 1.0 | 1.0 | 0.00 | 0.00 | 0.00 | 69 | 1009.4 |
| 20260506043741 | 66 | 70 | 0.0 | 0.0 | 0.00 | 0.00 | 0.00 | 69 | 1009.4 |
| 20260506043238 | 66 | 93 | 0.0 | 0.0 | 0.00 | 0.00 | 0.00 | 69 | 1009.5 |
| 20260506042737 | 66 | 104 | 0.0 | 0.0 | 0.00 | 0.00 | 0.00 | 69 | 1009.4 |
| 20260506042235 | 66 | 75 | 0.0 | 0.0 | 0.00 | 0.00 | 0.00 | 68 | 1009.5 |
| 20260506041733 | 66 | 98 | 0.0 | 0.0 | 0.00 | 0.00 | 0.00 | 68 | 1009.5 |
| 20260506041230 | 66 | 91 | 0.0 | 0.0 | 0.00 | 0.00 | 0.00 | 69 | 1009.4 |
| 20260506040728 | 66 | 92 | 0.0 | 0.0 | 0.00 | 0.00 | 0.00 | 68 | 1009.3 |
| 20260506040225 | 66 | 67 | 0.0 | 0.0 | 0.00 | 0.00 | 0.00 | 68 | 1009.5 |
| 20260506035721 | 67 | 74 | 0.0 | 0.0 | 0.00 | 0.01 | 0.01 | 68 | 1009.4 |
| 20260506035218 | 66 | 113 | 0.0 | 0.0 | 0.00 | 0.01 | 0.01 | 68 | 1009.4 |
| 20260506034715 | 66 | 77 | 0.0 | 0.0 | 0.00 | 0.01 | 0.01 | 67 | 1009.4 |
| 20260506034212 | 66 | 102 | 0.0 | 1.0 | 0.00 | 0.01 | 0.01 | 67 | 1009.4 |
| 20260506033710 | 66 | 67 | 0.0 | 0.0 | 0.00 | 0.01 | 0.01 | 67 | 1009.0 |
| 20260506033206 | 67 | 73 | 0.0 | 0.0 | 0.00 | 0.01 | 0.01 | 67 | 1009.3 |
| 20260506032703 | 67 | 71 | 0.0 | 1.0 | 0.00 | 0.01 | 0.01 | 66 | 1009.2 |
| 20260506032200 | 67 | 95 | 0.0 | 0.0 | 0.00 | 0.01 | 0.01 | 66 | 1009.3 |
| 20260506031657 | 67 | 74 | 0.0 | 0.0 | 0.00 | 0.01 | 0.01 | 66 | 1009.0 |
| 20260506031154 | 68 | 74 | 0.0 | 0.0 | 0.00 | 0.01 | 0.01 | 65 | 1009.2 |
| 20260506030653 | 69 | 86 | 0.0 | 0.0 | 0.00 | 0.01 | 0.01 | 63 | 1009.2 |
| 20260506030149 | 69 | 96 | 0.0 | 0.0 | 0.00 | 0.01 | 0.01 | 63 | 1009.3 |
| 20260506025646 | 68 | 116 | 1.0 | 1.0 | 0.00 | 0.01 | 0.01 | 64 | 1009.5 |
| 20260506025142 | 68 | 122 | 0.0 | 0.0 | 0.00 | 0.01 | 0.01 | 63 | 1009.2 |
| 20260506024640 | 68 | 73 | 1.0 | 1.0 | 0.00 | 0.01 | 0.01 | 64 | 1009.4 |
| 20260506024136 | 68 | 75 | 0.0 | 1.0 | 0.00 | 0.01 | 0.01 | 63 | 1009.4 |
| 20260506023633 | 69 | 116 | 0.0 | 1.0 | 0.00 | 0.01 | 0.01 | 62 | 1009.6 |
| 20260506023130 | 69 | 89 | 0.0 | 0.0 | 0.00 | 0.01 | 0.01 | 61 | 1009.6 |
| 20260506022627 | 69 | 104 | 0.0 | 0.0 | 0.00 | 0.01 | 0.01 | 62 | 1009.3 |
| 20260506022124 | 69 | 112 | 0.0 | 0.0 | 0.00 | 0.01 | 0.01 | 61 | 1009.4 |
| 20260506021622 | 70 | 98 | 0.0 | 0.0 | 0.00 | 0.01 | 0.01 | 59 | 1009.3 |
| 20260506021119 | 69 | 125 | 1.0 | 1.0 | 0.00 | 0.01 | 0.01 | 60 | 1009.4 |
| 20260506020616 | 70 | 87 | 0.0 | 0.0 | 0.00 | 0.01 | 0.01 | 59 | 1009.4 |
| 20260506020114 | 70 | 79 | 0.0 | 0.0 | 0.00 | 0.01 | 0.01 | 59 | 1009.2 |
| 20260506015611 | 69 | 90 | 0.0 | 0.0 | 0.00 | 0.01 | 0.01 | 60 | 1008.9 |
| 20260506015108 | 70 | 97 | 0.0 | 0.0 | 0.00 | 0.01 | 0.01 | 58 | 1009.2 |
| 20260506014606 | 71 | 91 | 0.0 | 0.0 | 0.00 | 0.01 | 0.01 | 57 | 1009.0 |
| 20260506014101 | 71 | 94 | 1.0 | 1.0 | 0.00 | 0.01 | 0.01 | 56 | 1009.0 |
| 20260506013559 | 71 | 82 | 0.0 | 0.0 | 0.00 | 0.01 | 0.01 | 56 | 1009.1 |
| 20260506013056 | 71 | 93 | 0.0 | 0.0 | 0.00 | 0.01 | 0.01 | 55 | 1009.1 |
| 20260506012552 | 72 | 112 | 0.0 | 1.0 | 0.00 | 0.01 | 0.01 | 54 | 1008.9 |
| 20260506012049 | 72 | 132 | 2.0 | 2.0 | 0.00 | 0.01 | 0.01 | 53 | 1008.8 |
| 20260506011547 | 72 | 88 | 0.0 | 0.0 | 0.00 | 0.01 | 0.01 | 55 | 1008.9 |
| 20260506011042 | 72 | 71 | 0.0 | 0.0 | 0.00 | 0.01 | 0.01 | 55 | 1008.7 |
| 20260506010537 | 72 | 85 | 0.0 | 0.0 | 0.00 | 0.01 | 0.01 | 55 | 1008.8 |
| 20260506010033 | 73 | 106 | 0.0 | 1.0 | 0.00 | 0.01 | 0.01 | 52 | 1008.5 |
| 20260506005530 | 73 | 110 | 0.0 | 1.0 | 0.00 | 0.01 | 0.01 | 51 | 1008.6 |
| 20260506005025 | 73 | 159 | 1.0 | 2.0 | 0.00 | 0.01 | 0.01 | 51 | 1008.7 |
| 20260506004523 | 73 | 81 | 0.0 | 0.0 | 0.00 | 0.01 | 0.01 | 52 | 1008.5 |
| 20260506004020 | 73 | 131 | 2.0 | 2.0 | 0.00 | 0.01 | 0.01 | 50 | 1008.5 |
| 20260506003516 | 74 | 128 | 1.0 | 2.0 | 0.00 | 0.01 | 0.01 | 49 | 1008.5 |
| 20260506003012 | 74 | 151 | 3.0 | 3.0 | 0.00 | 0.01 | 0.01 | 48 | 1008.4 |
| 20260506002508 | 74 | 113 | 0.0 | 1.0 | 0.00 | 0.01 | 0.01 | 49 | 1008.5 |
| 20260506002004 | 74 | 99 | 1.0 | 1.0 | 0.00 | 0.01 | 0.01 | 48 | 1008.3 |
| 20260506001501 | 74 | 167 | 2.0 | 3.0 | 0.00 | 0.01 | 0.01 | 48 | 1008.3 |
| 20260506000958 | 75 | 95 | 1.0 | 1.0 | 0.00 | 0.01 | 0.01 | 47 | 1008.0 |
| 20260506000455 | 75 | 144 | 1.0 | 2.0 | 0.00 | 0.01 | 0.01 | 47 | 1008.2 |
| 20260505235952 | 75 | 139 | 3.0 | 5.0 | 0.00 | 0.01 | 0.01 | 46 | 1007.9 |
| 20260505235451 | 76 | 104 | 0.0 | 1.0 | 0.00 | 0.01 | 0.01 | 46 | 1007.9 |
| 20260505234947 | 76 | 130 | 1.0 | 2.0 | 0.00 | 0.01 | 0.01 | 46 | 1007.8 |
| 20260505234444 | 77 | 121 | 1.0 | 1.0 | 0.00 | 0.01 | 0.01 | 43 | 1008.0 |
| 20260505233941 | 77 | 145 | 2.0 | 2.0 | 0.00 | 0.01 | 0.01 | 42 | 1007.8 |
| 20260505233439 | 76 | 118 | 1.0 | 1.0 | 0.00 | 0.01 | 0.01 | 44 | 1007.8 |
| 20260505232936 | 76 | 69 | 0.0 | 0.0 | 0.00 | 0.01 | 0.01 | 44 | 1007.8 |
| 20260505232434 | 76 | 72 | 0.0 | 0.0 | 0.00 | 0.01 | 0.01 | 45 | 1008.0 |
| 20260505231931 | 76 | 18 | 2.0 | 3.0 | 0.00 | 0.01 | 0.01 | 45 | 1007.9 |
| 20260505231428 | 77 | 69 | 0.0 | 0.0 | 0.00 | 0.01 | 0.01 | 44 | 1007.8 |
| 20260505230926 | 78 | 66 | 0.0 | 0.0 | 0.00 | 0.01 | 0.01 | 43 | 1007.6 |
| 20260505230423 | 78 | 98 | 0.0 | 1.0 | 0.00 | 0.01 | 0.01 | 41 | 1007.7 |
| 20260505225920 | 77 | 86 | 0.0 | 0.0 | 0.00 | 0.01 | 0.01 | 43 | 1007.8 |
| 20260505225417 | 78 | 69 | 0.0 | 0.0 | 0.00 | 0.01 | 0.01 | 43 | 1007.8 |
| 20260505224912 | 78 | 125 | 1.0 | 1.0 | 0.00 | 0.01 | 0.01 | 41 | 1007.9 |
| 20260505224410 | 78 | 84 | 0.0 | 0.0 | 0.00 | 0.01 | 0.01 | 41 | 1007.6 |
| 20260505223906 | 79 | 89 | 0.0 | 0.0 | 0.00 | 0.01 | 0.01 | 40 | 1007.7 |
| 20260505223403 | 79 | 119 | 1.0 | 1.0 | 0.00 | 0.01 | 0.01 | 40 | 1007.7 |
| 20260505222900 | 79 | 112 | 1.0 | 1.0 | 0.00 | 0.01 | 0.01 | 40 | 1007.7 |
| 20260505222356 | 79 | 115 | 1.0 | 2.0 | 0.00 | 0.01 | 0.01 | 41 | 1007.8 |
| 20260505221852 | 80 | 170 | 3.0 | 3.0 | 0.00 | 0.01 | 0.01 | 41 | 1007.9 |
| 20260505221349 | 80 | 173 | 3.0 | 5.0 | 0.00 | 0.01 | 0.01 | 39 | 1007.9 |
| 20260505220846 | 80 | 158 | 5.0 | 5.0 | 0.00 | 0.01 | 0.01 | 40 | 1008.0 |
| 20260505220343 | 79 | 75 | 3.0 | 3.0 | 0.00 | 0.01 | 0.01 | 40 | 1007.9 |
| 20260505215841 | 79 | 111 | 1.0 | 1.0 | 0.00 | 0.01 | 0.01 | 41 | 1008.1 |
| 20260505215339 | 79 | 124 | 1.0 | 2.0 | 0.00 | 0.01 | 0.01 | 41 | 1007.9 |
| 20260505214837 | 80 | 134 | 2.0 | 2.0 | 0.00 | 0.01 | 0.01 | 39 | 1007.8 |
| 20260505214334 | 80 | 170 | 3.0 | 3.0 | 0.00 | 0.01 | 0.01 | 39 | 1007.8 |
| 20260505213831 | 81 | 92 | 1.0 | 1.0 | 0.00 | 0.01 | 0.01 | 39 | 1007.8 |
| 20260505213329 | 80 | 174 | 1.0 | 1.0 | 0.00 | 0.01 | 0.01 | 39 | 1007.7 |
| 20260505212825 | 81 | 213 | 2.0 | 3.0 | 0.00 | 0.01 | 0.01 | 38 | 1007.7 |
| 20260505212322 | 81 | 180 | 3.0 | 3.0 | 0.00 | 0.01 | 0.01 | 39 | 1007.7 |
| 20260505211818 | 81 | 130 | 1.0 | 2.0 | 0.00 | 0.01 | 0.01 | 38 | 1007.7 |
| 20260505211316 | 81 | 188 | 3.0 | 3.0 | 0.00 | 0.01 | 0.01 | 38 | 1007.6 |
| 20260505210812 | 81 | 137 | 2.0 | 3.0 | 0.00 | 0.01 | 0.01 | 38 | 1007.8 |
| 20260505210309 | 82 | 293 | 2.0 | 3.0 | 0.00 | 0.01 | 0.01 | 37 | 1007.7 |
| 20260505205806 | 82 | 90 | 0.0 | 1.0 | 0.00 | 0.01 | 0.01 | 38 | 1007.7 |
| 20260505205305 | 82 | 116 | 0.0 | 1.0 | 0.00 | 0.01 | 0.01 | 37 | 1007.5 |
| 20260505204801 | 81 | 66 | 0.0 | 0.0 | 0.00 | 0.01 | 0.01 | 38 | 1007.6 |
| 20260505204259 | 82 | 153 | 1.0 | 1.0 | 0.00 | 0.01 | 0.01 | 37 | 1007.7 |
| 20260505203755 | 82 | 136 | 2.0 | 3.0 | 0.00 | 0.01 | 0.01 | 37 | 1007.5 |
| 20260505203253 | 82 | 155 | 1.0 | 2.0 | 0.00 | 0.01 | 0.01 | 39 | 1007.6 |
| 20260505202749 | 82 | 182 | 2.0 | 2.0 | 0.00 | 0.01 | 0.01 | 38 | 1007.8 |
| 20260505202245 | 81 | 155 | 1.0 | 2.0 | 0.00 | 0.01 | 0.01 | 37 | 1007.6 |